<?xml version="1.0" encoding="UTF-8" standalone="no" ?>
<gpx xmlns="http://www.topografix.com/GPX/1/1" xmlns:xsi="http://www.w3.org/2001/XMLSchema-instance" xsi:schemaLocation="http://www.topografix.com/GPX/1/1 http://www.topografix.com/GPX/1/1/gpx.xsd" version="1.1" creator="VisuGPX - https://www.visugpx.com">
  <metadata>
    <name>2021-02-21 Valmont</name>
  </metadata>
  <trk>
    <name><![CDATA[2021-02-21 09:45:09]]></name>
    <trkseg>
      <trkpt lat="49.08656" lon="6.69491">
        <ele>289.49</ele>
        <time>2021-02-21T06:01:43Z</time>
      </trkpt>
      <trkpt lat="49.08649" lon="6.69509">
        <ele>288.53</ele>
        <time>2021-02-21T06:01:55Z</time>
      </trkpt>
      <trkpt lat="49.0864" lon="6.69529">
        <ele>287.57</ele>
        <time>2021-02-21T06:02:07Z</time>
      </trkpt>
      <trkpt lat="49.08637" lon="6.69548">
        <ele>287.57</ele>
        <time>2021-02-21T06:02:22Z</time>
      </trkpt>
      <trkpt lat="49.08626" lon="6.69585">
        <ele>287.09</ele>
        <time>2021-02-21T06:02:43Z</time>
      </trkpt>
      <trkpt lat="49.08621" lon="6.69599">
        <ele>287.09</ele>
        <time>2021-02-21T06:02:51Z</time>
      </trkpt>
      <trkpt lat="49.08608" lon="6.69643">
        <ele>285.17</ele>
        <time>2021-02-21T06:03:14Z</time>
      </trkpt>
      <trkpt lat="49.08596" lon="6.69683">
        <ele>284.69</ele>
        <time>2021-02-21T06:03:31Z</time>
      </trkpt>
      <trkpt lat="49.08587" lon="6.69718">
        <ele>282.77</ele>
        <time>2021-02-21T06:03:49Z</time>
      </trkpt>
      <trkpt lat="49.08574" lon="6.69757">
        <ele>281.32</ele>
        <time>2021-02-21T06:04:07Z</time>
      </trkpt>
      <trkpt lat="49.08566" lon="6.69791">
        <ele>279.4</ele>
        <time>2021-02-21T06:04:27Z</time>
      </trkpt>
      <trkpt lat="49.08552" lon="6.69821">
        <ele>278.44</ele>
        <time>2021-02-21T06:04:46Z</time>
      </trkpt>
      <trkpt lat="49.08536" lon="6.69853">
        <ele>277</ele>
        <time>2021-02-21T06:05:05Z</time>
      </trkpt>
      <trkpt lat="49.08519" lon="6.69887">
        <ele>275.07</ele>
        <time>2021-02-21T06:05:27Z</time>
      </trkpt>
      <trkpt lat="49.08521" lon="6.69885">
        <ele>275.07</ele>
        <time>2021-02-21T06:05:47Z</time>
      </trkpt>
      <trkpt lat="49.08521" lon="6.69913">
        <ele>274.59</ele>
        <time>2021-02-21T06:06:03Z</time>
      </trkpt>
      <trkpt lat="49.08517" lon="6.69929">
        <ele>274.59</ele>
        <time>2021-02-21T06:06:16Z</time>
      </trkpt>
      <trkpt lat="49.08515" lon="6.69932">
        <ele>274.59</ele>
        <time>2021-02-21T06:06:20Z</time>
      </trkpt>
      <trkpt lat="49.08499" lon="6.69971">
        <ele>272.19</ele>
        <time>2021-02-21T06:06:43Z</time>
      </trkpt>
      <trkpt lat="49.0849" lon="6.69989">
        <ele>270.75</ele>
        <time>2021-02-21T06:07:03Z</time>
      </trkpt>
      <trkpt lat="49.08453" lon="6.69984">
        <ele>268.35</ele>
        <time>2021-02-21T06:07:27Z</time>
      </trkpt>
      <trkpt lat="49.08441" lon="6.70002">
        <ele>266.9</ele>
        <time>2021-02-21T06:07:45Z</time>
      </trkpt>
      <trkpt lat="49.08436" lon="6.70036">
        <ele>266.42</ele>
        <time>2021-02-21T06:08:06Z</time>
      </trkpt>
      <trkpt lat="49.08413" lon="6.70066">
        <ele>264.5</ele>
        <time>2021-02-21T06:08:25Z</time>
      </trkpt>
      <trkpt lat="49.08392" lon="6.7008">
        <ele>263.54</ele>
        <time>2021-02-21T06:08:42Z</time>
      </trkpt>
      <trkpt lat="49.08389" lon="6.70085">
        <ele>263.54</ele>
        <time>2021-02-21T06:08:45Z</time>
      </trkpt>
      <trkpt lat="49.08382" lon="6.7011">
        <ele>263.54</ele>
        <time>2021-02-21T06:08:59Z</time>
      </trkpt>
      <trkpt lat="49.08377" lon="6.70118">
        <ele>263.54</ele>
        <time>2021-02-21T06:09:04Z</time>
      </trkpt>
      <trkpt lat="49.08358" lon="6.70136">
        <ele>263.06</ele>
        <time>2021-02-21T06:09:21Z</time>
      </trkpt>
      <trkpt lat="49.08351" lon="6.70155">
        <ele>263.06</ele>
        <time>2021-02-21T06:09:41Z</time>
      </trkpt>
      <trkpt lat="49.08341" lon="6.70178">
        <ele>262.1</ele>
        <time>2021-02-21T06:10:01Z</time>
      </trkpt>
      <trkpt lat="49.08333" lon="6.70193">
        <ele>261.62</ele>
        <time>2021-02-21T06:10:15Z</time>
      </trkpt>
      <trkpt lat="49.0833" lon="6.70194">
        <ele>261.14</ele>
        <time>2021-02-21T06:10:18Z</time>
      </trkpt>
      <trkpt lat="49.08304" lon="6.70215">
        <ele>261.62</ele>
        <time>2021-02-21T06:10:39Z</time>
      </trkpt>
      <trkpt lat="49.08292" lon="6.7023">
        <ele>260.65</ele>
        <time>2021-02-21T06:10:51Z</time>
      </trkpt>
      <trkpt lat="49.08268" lon="6.70264">
        <ele>260.65</ele>
        <time>2021-02-21T06:11:15Z</time>
      </trkpt>
      <trkpt lat="49.08268" lon="6.70267">
        <ele>260.65</ele>
        <time>2021-02-21T06:11:17Z</time>
      </trkpt>
      <trkpt lat="49.08272" lon="6.70274">
        <ele>260.65</ele>
        <time>2021-02-21T06:11:22Z</time>
      </trkpt>
      <trkpt lat="49.08299" lon="6.70313">
        <ele>261.14</ele>
        <time>2021-02-21T06:11:49Z</time>
      </trkpt>
      <trkpt lat="49.08302" lon="6.70352">
        <ele>264.02</ele>
        <time>2021-02-21T06:12:08Z</time>
      </trkpt>
      <trkpt lat="49.08308" lon="6.70391">
        <ele>264.5</ele>
        <time>2021-02-21T06:12:27Z</time>
      </trkpt>
      <trkpt lat="49.08316" lon="6.70421">
        <ele>266.9</ele>
        <time>2021-02-21T06:12:45Z</time>
      </trkpt>
      <trkpt lat="49.08325" lon="6.7045">
        <ele>267.86</ele>
        <time>2021-02-21T06:13:04Z</time>
      </trkpt>
      <trkpt lat="49.08335" lon="6.70481">
        <ele>269.79</ele>
        <time>2021-02-21T06:13:26Z</time>
      </trkpt>
      <trkpt lat="49.08349" lon="6.70502">
        <ele>270.27</ele>
        <time>2021-02-21T06:13:44Z</time>
      </trkpt>
      <trkpt lat="49.08362" lon="6.70507">
        <ele>271.23</ele>
        <time>2021-02-21T06:13:54Z</time>
      </trkpt>
      <trkpt lat="49.08386" lon="6.70523">
        <ele>271.71</ele>
        <time>2021-02-21T06:14:16Z</time>
      </trkpt>
      <trkpt lat="49.08405" lon="6.70552">
        <ele>273.15</ele>
        <time>2021-02-21T06:14:38Z</time>
      </trkpt>
      <trkpt lat="49.08427" lon="6.70589">
        <ele>272.67</ele>
        <time>2021-02-21T06:15:03Z</time>
      </trkpt>
      <trkpt lat="49.08448" lon="6.70623">
        <ele>273.15</ele>
        <time>2021-02-21T06:15:27Z</time>
      </trkpt>
      <trkpt lat="49.08469" lon="6.70642">
        <ele>273.63</ele>
        <time>2021-02-21T06:15:47Z</time>
      </trkpt>
      <trkpt lat="49.08481" lon="6.70678">
        <ele>272.67</ele>
        <time>2021-02-21T06:16:09Z</time>
      </trkpt>
      <trkpt lat="49.08488" lon="6.70724">
        <ele>271.23</ele>
        <time>2021-02-21T06:16:33Z</time>
      </trkpt>
      <trkpt lat="49.0849" lon="6.7076">
        <ele>268.83</ele>
        <time>2021-02-21T06:16:52Z</time>
      </trkpt>
      <trkpt lat="49.08487" lon="6.70794">
        <ele>266.42</ele>
        <time>2021-02-21T06:17:10Z</time>
      </trkpt>
      <trkpt lat="49.08484" lon="6.7082">
        <ele>265.94</ele>
        <time>2021-02-21T06:17:25Z</time>
      </trkpt>
      <trkpt lat="49.08483" lon="6.7083">
        <ele>265.46</ele>
        <time>2021-02-21T06:17:30Z</time>
      </trkpt>
      <trkpt lat="49.08494" lon="6.70865">
        <ele>265.94</ele>
        <time>2021-02-21T06:17:53Z</time>
      </trkpt>
      <trkpt lat="49.08491" lon="6.7087">
        <ele>265.46</ele>
        <time>2021-02-21T06:17:57Z</time>
      </trkpt>
      <trkpt lat="49.08472" lon="6.70903">
        <ele>263.54</ele>
        <time>2021-02-21T06:18:19Z</time>
      </trkpt>
      <trkpt lat="49.08455" lon="6.70941">
        <ele>263.54</ele>
        <time>2021-02-21T06:18:43Z</time>
      </trkpt>
      <trkpt lat="49.08449" lon="6.70947">
        <ele>263.06</ele>
        <time>2021-02-21T06:18:49Z</time>
      </trkpt>
      <trkpt lat="49.0843" lon="6.70967">
        <ele>263.54</ele>
        <time>2021-02-21T06:19:09Z</time>
      </trkpt>
      <trkpt lat="49.0843" lon="6.70968">
        <ele>262.1</ele>
        <time>2021-02-21T06:19:10Z</time>
      </trkpt>
      <trkpt lat="49.08429" lon="6.70972">
        <ele>263.06</ele>
        <time>2021-02-21T06:19:12Z</time>
      </trkpt>
      <trkpt lat="49.08453" lon="6.71011">
        <ele>264.5</ele>
        <time>2021-02-21T06:19:39Z</time>
      </trkpt>
      <trkpt lat="49.0848" lon="6.7105">
        <ele>265.94</ele>
        <time>2021-02-21T06:20:07Z</time>
      </trkpt>
      <trkpt lat="49.08504" lon="6.71088">
        <ele>268.35</ele>
        <time>2021-02-21T06:20:33Z</time>
      </trkpt>
      <trkpt lat="49.08528" lon="6.71124">
        <ele>269.79</ele>
        <time>2021-02-21T06:20:58Z</time>
      </trkpt>
      <trkpt lat="49.08553" lon="6.71157">
        <ele>270.27</ele>
        <time>2021-02-21T06:21:24Z</time>
      </trkpt>
      <trkpt lat="49.08575" lon="6.71193">
        <ele>271.23</ele>
        <time>2021-02-21T06:21:49Z</time>
      </trkpt>
      <trkpt lat="49.08598" lon="6.71229">
        <ele>271.71</ele>
        <time>2021-02-21T06:22:14Z</time>
      </trkpt>
      <trkpt lat="49.08615" lon="6.7127">
        <ele>272.19</ele>
        <time>2021-02-21T06:22:37Z</time>
      </trkpt>
      <trkpt lat="49.08632" lon="6.71316">
        <ele>272.19</ele>
        <time>2021-02-21T06:23:03Z</time>
      </trkpt>
      <trkpt lat="49.08651" lon="6.71368">
        <ele>271.23</ele>
        <time>2021-02-21T06:23:34Z</time>
      </trkpt>
      <trkpt lat="49.08666" lon="6.71414">
        <ele>270.75</ele>
        <time>2021-02-21T06:24:00Z</time>
      </trkpt>
      <trkpt lat="49.08682" lon="6.71454">
        <ele>270.27</ele>
        <time>2021-02-21T06:24:23Z</time>
      </trkpt>
      <trkpt lat="49.08698" lon="6.71501">
        <ele>268.83</ele>
        <time>2021-02-21T06:24:48Z</time>
      </trkpt>
      <trkpt lat="49.08718" lon="6.71554">
        <ele>266.42</ele>
        <time>2021-02-21T06:25:17Z</time>
      </trkpt>
      <trkpt lat="49.08739" lon="6.7158">
        <ele>265.46</ele>
        <time>2021-02-21T06:25:37Z</time>
      </trkpt>
      <trkpt lat="49.08742" lon="6.7158">
        <ele>265.46</ele>
        <time>2021-02-21T06:25:39Z</time>
      </trkpt>
      <trkpt lat="49.08778" lon="6.71567">
        <ele>266.42</ele>
        <time>2021-02-21T06:26:09Z</time>
      </trkpt>
      <trkpt lat="49.08812" lon="6.71581">
        <ele>267.86</ele>
        <time>2021-02-21T06:26:34Z</time>
      </trkpt>
      <trkpt lat="49.08814" lon="6.71582">
        <ele>267.86</ele>
        <time>2021-02-21T06:26:36Z</time>
      </trkpt>
      <trkpt lat="49.08844" lon="6.71604">
        <ele>268.83</ele>
        <time>2021-02-21T06:27:02Z</time>
      </trkpt>
      <trkpt lat="49.08857" lon="6.71621">
        <ele>269.31</ele>
        <time>2021-02-21T06:27:16Z</time>
      </trkpt>
      <trkpt lat="49.0887" lon="6.71645">
        <ele>269.79</ele>
        <time>2021-02-21T06:27:31Z</time>
      </trkpt>
      <trkpt lat="49.08888" lon="6.71658">
        <ele>272.19</ele>
        <time>2021-02-21T06:27:47Z</time>
      </trkpt>
      <trkpt lat="49.08898" lon="6.71681">
        <ele>274.11</ele>
        <time>2021-02-21T06:28:05Z</time>
      </trkpt>
      <trkpt lat="49.08909" lon="6.71701">
        <ele>276.52</ele>
        <time>2021-02-21T06:28:22Z</time>
      </trkpt>
      <trkpt lat="49.08915" lon="6.71731">
        <ele>277.96</ele>
        <time>2021-02-21T06:28:41Z</time>
      </trkpt>
      <trkpt lat="49.08914" lon="6.7176">
        <ele>278.92</ele>
        <time>2021-02-21T06:28:59Z</time>
      </trkpt>
      <trkpt lat="49.08887" lon="6.71779">
        <ele>277.96</ele>
        <time>2021-02-21T06:29:21Z</time>
      </trkpt>
      <trkpt lat="49.08866" lon="6.71807">
        <ele>276.52</ele>
        <time>2021-02-21T06:29:42Z</time>
      </trkpt>
      <trkpt lat="49.08849" lon="6.71842">
        <ele>275.07</ele>
        <time>2021-02-21T06:30:03Z</time>
      </trkpt>
      <trkpt lat="49.08831" lon="6.71881">
        <ele>273.15</ele>
        <time>2021-02-21T06:30:27Z</time>
      </trkpt>
      <trkpt lat="49.08813" lon="6.71913">
        <ele>271.71</ele>
        <time>2021-02-21T06:30:47Z</time>
      </trkpt>
      <trkpt lat="49.08797" lon="6.71948">
        <ele>271.23</ele>
        <time>2021-02-21T06:31:09Z</time>
      </trkpt>
      <trkpt lat="49.08781" lon="6.71984">
        <ele>268.83</ele>
        <time>2021-02-21T06:31:30Z</time>
      </trkpt>
      <trkpt lat="49.08761" lon="6.72022">
        <ele>267.38</ele>
        <time>2021-02-21T06:31:53Z</time>
      </trkpt>
      <trkpt lat="49.08743" lon="6.72059">
        <ele>265.94</ele>
        <time>2021-02-21T06:32:16Z</time>
      </trkpt>
      <trkpt lat="49.08723" lon="6.72096">
        <ele>265.94</ele>
        <time>2021-02-21T06:32:39Z</time>
      </trkpt>
      <trkpt lat="49.08705" lon="6.7213">
        <ele>264.98</ele>
        <time>2021-02-21T06:33:01Z</time>
      </trkpt>
      <trkpt lat="49.08681" lon="6.72144">
        <ele>264.02</ele>
        <time>2021-02-21T06:33:22Z</time>
      </trkpt>
      <trkpt lat="49.0868" lon="6.72146">
        <ele>264.02</ele>
        <time>2021-02-21T06:33:25Z</time>
      </trkpt>
      <trkpt lat="49.08686" lon="6.72171">
        <ele>265.46</ele>
        <time>2021-02-21T06:33:41Z</time>
      </trkpt>
      <trkpt lat="49.08679" lon="6.72197">
        <ele>265.94</ele>
        <time>2021-02-21T06:33:58Z</time>
      </trkpt>
      <trkpt lat="49.08667" lon="6.72223">
        <ele>264.98</ele>
        <time>2021-02-21T06:34:15Z</time>
      </trkpt>
      <trkpt lat="49.08675" lon="6.72259">
        <ele>264.02</ele>
        <time>2021-02-21T06:34:35Z</time>
      </trkpt>
      <trkpt lat="49.08676" lon="6.72262">
        <ele>264.02</ele>
        <time>2021-02-21T06:34:37Z</time>
      </trkpt>
      <trkpt lat="49.08704" lon="6.72282">
        <ele>263.06</ele>
        <time>2021-02-21T06:34:59Z</time>
      </trkpt>
      <trkpt lat="49.08733" lon="6.72304">
        <ele>262.58</ele>
        <time>2021-02-21T06:35:23Z</time>
      </trkpt>
      <trkpt lat="49.08735" lon="6.72306">
        <ele>263.06</ele>
        <time>2021-02-21T06:35:25Z</time>
      </trkpt>
      <trkpt lat="49.0876" lon="6.72333">
        <ele>263.54</ele>
        <time>2021-02-21T06:35:49Z</time>
      </trkpt>
      <trkpt lat="49.08788" lon="6.72363">
        <ele>263.54</ele>
        <time>2021-02-21T06:36:14Z</time>
      </trkpt>
      <trkpt lat="49.08816" lon="6.72399">
        <ele>264.5</ele>
        <time>2021-02-21T06:36:40Z</time>
      </trkpt>
      <trkpt lat="49.08839" lon="6.72427">
        <ele>264.98</ele>
        <time>2021-02-21T06:37:03Z</time>
      </trkpt>
      <trkpt lat="49.08869" lon="6.7246">
        <ele>265.46</ele>
        <time>2021-02-21T06:37:30Z</time>
      </trkpt>
      <trkpt lat="49.08896" lon="6.72496">
        <ele>266.42</ele>
        <time>2021-02-21T06:37:58Z</time>
      </trkpt>
      <trkpt lat="49.08923" lon="6.72529">
        <ele>266.9</ele>
        <time>2021-02-21T06:38:24Z</time>
      </trkpt>
      <trkpt lat="49.08955" lon="6.72565">
        <ele>268.35</ele>
        <time>2021-02-21T06:38:54Z</time>
      </trkpt>
      <trkpt lat="49.08973" lon="6.72589">
        <ele>269.79</ele>
        <time>2021-02-21T06:39:12Z</time>
      </trkpt>
      <trkpt lat="49.08959" lon="6.72623">
        <ele>270.75</ele>
        <time>2021-02-21T06:39:33Z</time>
      </trkpt>
      <trkpt lat="49.08935" lon="6.72666">
        <ele>270.75</ele>
        <time>2021-02-21T06:39:59Z</time>
      </trkpt>
      <trkpt lat="49.08914" lon="6.72709">
        <ele>271.23</ele>
        <time>2021-02-21T06:40:25Z</time>
      </trkpt>
      <trkpt lat="49.08898" lon="6.72741">
        <ele>271.71</ele>
        <time>2021-02-21T06:40:46Z</time>
      </trkpt>
      <trkpt lat="49.08877" lon="6.72778">
        <ele>273.63</ele>
        <time>2021-02-21T06:41:10Z</time>
      </trkpt>
      <trkpt lat="49.08858" lon="6.72813">
        <ele>274.11</ele>
        <time>2021-02-21T06:41:33Z</time>
      </trkpt>
      <trkpt lat="49.08839" lon="6.72849">
        <ele>275.07</ele>
        <time>2021-02-21T06:41:56Z</time>
      </trkpt>
      <trkpt lat="49.08818" lon="6.72888">
        <ele>276.04</ele>
        <time>2021-02-21T06:42:22Z</time>
      </trkpt>
      <trkpt lat="49.08797" lon="6.7292">
        <ele>277.96</ele>
        <time>2021-02-21T06:42:44Z</time>
      </trkpt>
      <trkpt lat="49.08772" lon="6.72944">
        <ele>280.36</ele>
        <time>2021-02-21T06:43:07Z</time>
      </trkpt>
      <trkpt lat="49.08752" lon="6.72952">
        <ele>282.28</ele>
        <time>2021-02-21T06:43:25Z</time>
      </trkpt>
      <trkpt lat="49.0873" lon="6.72959">
        <ele>285.17</ele>
        <time>2021-02-21T06:43:45Z</time>
      </trkpt>
      <trkpt lat="49.08708" lon="6.72966">
        <ele>288.53</ele>
        <time>2021-02-21T06:44:04Z</time>
      </trkpt>
      <trkpt lat="49.08684" lon="6.72974">
        <ele>291.42</ele>
        <time>2021-02-21T06:44:26Z</time>
      </trkpt>
      <trkpt lat="49.08663" lon="6.72978">
        <ele>295.26</ele>
        <time>2021-02-21T06:44:45Z</time>
      </trkpt>
      <trkpt lat="49.08643" lon="6.72982">
        <ele>296.7</ele>
        <time>2021-02-21T06:45:06Z</time>
      </trkpt>
      <trkpt lat="49.08621" lon="6.72989">
        <ele>299.59</ele>
        <time>2021-02-21T06:45:24Z</time>
      </trkpt>
      <trkpt lat="49.08605" lon="6.72993">
        <ele>301.03</ele>
        <time>2021-02-21T06:45:41Z</time>
      </trkpt>
      <trkpt lat="49.08579" lon="6.73002">
        <ele>302.95</ele>
        <time>2021-02-21T06:46:04Z</time>
      </trkpt>
      <trkpt lat="49.0858" lon="6.73033">
        <ele>304.88</ele>
        <time>2021-02-21T06:46:24Z</time>
      </trkpt>
      <trkpt lat="49.08584" lon="6.7304">
        <ele>305.36</ele>
        <time>2021-02-21T06:46:30Z</time>
      </trkpt>
      <trkpt lat="49.08596" lon="6.73068">
        <ele>306.32</ele>
        <time>2021-02-21T06:46:47Z</time>
      </trkpt>
      <trkpt lat="49.08602" lon="6.73086">
        <ele>307.28</ele>
        <time>2021-02-21T06:47:04Z</time>
      </trkpt>
      <trkpt lat="49.08601" lon="6.73087">
        <ele>307.28</ele>
        <time>2021-02-21T06:47:27Z</time>
      </trkpt>
      <trkpt lat="49.08615" lon="6.7312">
        <ele>307.28</ele>
        <time>2021-02-21T06:47:49Z</time>
      </trkpt>
      <trkpt lat="49.08619" lon="6.73173">
        <ele>307.28</ele>
        <time>2021-02-21T06:48:14Z</time>
      </trkpt>
      <trkpt lat="49.08622" lon="6.73192">
        <ele>308.24</ele>
        <time>2021-02-21T06:48:37Z</time>
      </trkpt>
      <trkpt lat="49.08617" lon="6.73197">
        <ele>308.72</ele>
        <time>2021-02-21T06:48:56Z</time>
      </trkpt>
      <trkpt lat="49.08615" lon="6.73198">
        <ele>308.72</ele>
        <time>2021-02-21T06:49:05Z</time>
      </trkpt>
      <trkpt lat="49.08611" lon="6.73208">
        <ele>308.72</ele>
        <time>2021-02-21T06:49:12Z</time>
      </trkpt>
      <trkpt lat="49.08605" lon="6.73216">
        <ele>308.72</ele>
        <time>2021-02-21T06:49:19Z</time>
      </trkpt>
      <trkpt lat="49.08576" lon="6.73245">
        <ele>310.64</ele>
        <time>2021-02-21T06:49:44Z</time>
      </trkpt>
      <trkpt lat="49.08549" lon="6.73271">
        <ele>310.64</ele>
        <time>2021-02-21T06:50:06Z</time>
      </trkpt>
      <trkpt lat="49.08532" lon="6.73285">
        <ele>310.64</ele>
        <time>2021-02-21T06:50:22Z</time>
      </trkpt>
      <trkpt lat="49.08513" lon="6.733">
        <ele>310.64</ele>
        <time>2021-02-21T06:50:42Z</time>
      </trkpt>
      <trkpt lat="49.08501" lon="6.73311">
        <ele>311.12</ele>
        <time>2021-02-21T06:50:58Z</time>
      </trkpt>
      <trkpt lat="49.08483" lon="6.73314">
        <ele>311.6</ele>
        <time>2021-02-21T06:51:16Z</time>
      </trkpt>
      <trkpt lat="49.08481" lon="6.73314">
        <ele>312.09</ele>
        <time>2021-02-21T06:51:18Z</time>
      </trkpt>
      <trkpt lat="49.08466" lon="6.73313">
        <ele>313.05</ele>
        <time>2021-02-21T06:51:33Z</time>
      </trkpt>
      <trkpt lat="49.08458" lon="6.73311">
        <ele>314.49</ele>
        <time>2021-02-21T06:51:49Z</time>
      </trkpt>
      <trkpt lat="49.08445" lon="6.73312">
        <ele>315.93</ele>
        <time>2021-02-21T06:52:04Z</time>
      </trkpt>
      <trkpt lat="49.08428" lon="6.73316">
        <ele>317.85</ele>
        <time>2021-02-21T06:52:24Z</time>
      </trkpt>
      <trkpt lat="49.0842" lon="6.73316">
        <ele>319.3</ele>
        <time>2021-02-21T06:52:40Z</time>
      </trkpt>
      <trkpt lat="49.08409" lon="6.73312">
        <ele>319.3</ele>
        <time>2021-02-21T06:52:53Z</time>
      </trkpt>
      <trkpt lat="49.08396" lon="6.73311">
        <ele>319.3</ele>
        <time>2021-02-21T06:53:03Z</time>
      </trkpt>
      <trkpt lat="49.08385" lon="6.73309">
        <ele>319.3</ele>
        <time>2021-02-21T06:53:12Z</time>
      </trkpt>
      <trkpt lat="49.08376" lon="6.73312">
        <ele>319.3</ele>
        <time>2021-02-21T06:53:27Z</time>
      </trkpt>
      <trkpt lat="49.08374" lon="6.73311">
        <ele>318.33</ele>
        <time>2021-02-21T06:53:29Z</time>
      </trkpt>
      <trkpt lat="49.08371" lon="6.73312">
        <ele>318.81</ele>
        <time>2021-02-21T06:53:32Z</time>
      </trkpt>
      <trkpt lat="49.08347" lon="6.73313">
        <ele>317.85</ele>
        <time>2021-02-21T06:53:51Z</time>
      </trkpt>
      <trkpt lat="49.08319" lon="6.73316">
        <ele>315.45</ele>
        <time>2021-02-21T06:54:14Z</time>
      </trkpt>
      <trkpt lat="49.08316" lon="6.73319">
        <ele>315.45</ele>
        <time>2021-02-21T06:54:28Z</time>
      </trkpt>
      <trkpt lat="49.08301" lon="6.73319">
        <ele>314.01</ele>
        <time>2021-02-21T06:54:49Z</time>
      </trkpt>
      <trkpt lat="49.08283" lon="6.73324">
        <ele>311.6</ele>
        <time>2021-02-21T06:55:03Z</time>
      </trkpt>
      <trkpt lat="49.08257" lon="6.73332">
        <ele>309.68</ele>
        <time>2021-02-21T06:55:24Z</time>
      </trkpt>
      <trkpt lat="49.0823" lon="6.73343">
        <ele>307.28</ele>
        <time>2021-02-21T06:55:46Z</time>
      </trkpt>
      <trkpt lat="49.08223" lon="6.73347">
        <ele>298.15</ele>
        <time>2021-02-21T06:55:52Z</time>
      </trkpt>
      <trkpt lat="49.08222" lon="6.73347">
        <ele>314.97</ele>
        <time>2021-02-21T06:55:53Z</time>
      </trkpt>
      <trkpt lat="49.08222" lon="6.73347">
        <ele>308.72</ele>
        <time>2021-02-21T06:55:54Z</time>
      </trkpt>
      <trkpt lat="49.08221" lon="6.73347">
        <ele>307.28</ele>
        <time>2021-02-21T06:55:56Z</time>
      </trkpt>
      <trkpt lat="49.0822" lon="6.73349">
        <ele>302.95</ele>
        <time>2021-02-21T06:55:59Z</time>
      </trkpt>
      <trkpt lat="49.0822" lon="6.73349">
        <ele>306.8</ele>
        <time>2021-02-21T06:56:01Z</time>
      </trkpt>
      <trkpt lat="49.08219" lon="6.73349">
        <ele>306.8</ele>
        <time>2021-02-21T06:56:03Z</time>
      </trkpt>
      <trkpt lat="49.08197" lon="6.73364">
        <ele>304.88</ele>
        <time>2021-02-21T06:56:22Z</time>
      </trkpt>
      <trkpt lat="49.08184" lon="6.73376">
        <ele>305.36</ele>
        <time>2021-02-21T06:56:40Z</time>
      </trkpt>
      <trkpt lat="49.08185" lon="6.7338">
        <ele>304.88</ele>
        <time>2021-02-21T06:56:59Z</time>
      </trkpt>
      <trkpt lat="49.08185" lon="6.7338">
        <ele>304.88</ele>
        <time>2021-02-21T06:57:08Z</time>
      </trkpt>
      <trkpt lat="49.08179" lon="6.73374">
        <ele>304.88</ele>
        <time>2021-02-21T06:57:19Z</time>
      </trkpt>
      <trkpt lat="49.08162" lon="6.73388">
        <ele>303.43</ele>
        <time>2021-02-21T06:57:36Z</time>
      </trkpt>
      <trkpt lat="49.08141" lon="6.7341">
        <ele>302.95</ele>
        <time>2021-02-21T06:57:58Z</time>
      </trkpt>
      <trkpt lat="49.08116" lon="6.73432">
        <ele>301.03</ele>
        <time>2021-02-21T06:58:21Z</time>
      </trkpt>
      <trkpt lat="49.08108" lon="6.73442">
        <ele>301.03</ele>
        <time>2021-02-21T06:58:29Z</time>
      </trkpt>
      <trkpt lat="49.08103" lon="6.73451">
        <ele>301.03</ele>
        <time>2021-02-21T06:58:35Z</time>
      </trkpt>
      <trkpt lat="49.08081" lon="6.73477">
        <ele>299.11</ele>
        <time>2021-02-21T06:58:56Z</time>
      </trkpt>
      <trkpt lat="49.08068" lon="6.73502">
        <ele>298.15</ele>
        <time>2021-02-21T06:59:12Z</time>
      </trkpt>
      <trkpt lat="49.0805" lon="6.73521">
        <ele>296.7</ele>
        <time>2021-02-21T06:59:30Z</time>
      </trkpt>
      <trkpt lat="49.08042" lon="6.73528">
        <ele>296.7</ele>
        <time>2021-02-21T06:59:42Z</time>
      </trkpt>
      <trkpt lat="49.08035" lon="6.73532">
        <ele>296.7</ele>
        <time>2021-02-21T06:59:49Z</time>
      </trkpt>
      <trkpt lat="49.08031" lon="6.73537">
        <ele>296.7</ele>
        <time>2021-02-21T06:59:54Z</time>
      </trkpt>
      <trkpt lat="49.08028" lon="6.73545">
        <ele>295.74</ele>
        <time>2021-02-21T07:00:11Z</time>
      </trkpt>
      <trkpt lat="49.08026" lon="6.73546">
        <ele>295.74</ele>
        <time>2021-02-21T07:00:24Z</time>
      </trkpt>
      <trkpt lat="49.08026" lon="6.7355">
        <ele>295.74</ele>
        <time>2021-02-21T07:00:38Z</time>
      </trkpt>
      <trkpt lat="49.08022" lon="6.73552">
        <ele>294.78</ele>
        <time>2021-02-21T07:00:56Z</time>
      </trkpt>
      <trkpt lat="49.08021" lon="6.73554">
        <ele>294.78</ele>
        <time>2021-02-21T07:01:32Z</time>
      </trkpt>
      <trkpt lat="49.08022" lon="6.73555">
        <ele>295.26</ele>
        <time>2021-02-21T07:01:57Z</time>
      </trkpt>
      <trkpt lat="49.08022" lon="6.73562">
        <ele>295.26</ele>
        <time>2021-02-21T07:02:14Z</time>
      </trkpt>
      <trkpt lat="49.08008" lon="6.73596">
        <ele>292.86</ele>
        <time>2021-02-21T07:02:35Z</time>
      </trkpt>
      <trkpt lat="49.07991" lon="6.73632">
        <ele>291.42</ele>
        <time>2021-02-21T07:02:57Z</time>
      </trkpt>
      <trkpt lat="49.07973" lon="6.73674">
        <ele>289.01</ele>
        <time>2021-02-21T07:03:20Z</time>
      </trkpt>
      <trkpt lat="49.07971" lon="6.73678">
        <ele>289.01</ele>
        <time>2021-02-21T07:03:35Z</time>
      </trkpt>
      <trkpt lat="49.07966" lon="6.7369">
        <ele>288.05</ele>
        <time>2021-02-21T07:03:48Z</time>
      </trkpt>
      <trkpt lat="49.0795" lon="6.73729">
        <ele>285.65</ele>
        <time>2021-02-21T07:04:10Z</time>
      </trkpt>
      <trkpt lat="49.07937" lon="6.73771">
        <ele>283.73</ele>
        <time>2021-02-21T07:04:32Z</time>
      </trkpt>
      <trkpt lat="49.07927" lon="6.73819">
        <ele>282.77</ele>
        <time>2021-02-21T07:04:55Z</time>
      </trkpt>
      <trkpt lat="49.07927" lon="6.73863">
        <ele>282.28</ele>
        <time>2021-02-21T07:05:15Z</time>
      </trkpt>
      <trkpt lat="49.07939" lon="6.739">
        <ele>285.17</ele>
        <time>2021-02-21T07:05:36Z</time>
      </trkpt>
      <trkpt lat="49.07958" lon="6.73933">
        <ele>287.57</ele>
        <time>2021-02-21T07:05:57Z</time>
      </trkpt>
      <trkpt lat="49.07972" lon="6.73965">
        <ele>288.53</ele>
        <time>2021-02-21T07:06:17Z</time>
      </trkpt>
      <trkpt lat="49.07987" lon="6.74003">
        <ele>289.01</ele>
        <time>2021-02-21T07:06:39Z</time>
      </trkpt>
      <trkpt lat="49.08004" lon="6.74038">
        <ele>289.49</ele>
        <time>2021-02-21T07:07:01Z</time>
      </trkpt>
      <trkpt lat="49.08021" lon="6.74077">
        <ele>289.01</ele>
        <time>2021-02-21T07:07:24Z</time>
      </trkpt>
      <trkpt lat="49.08036" lon="6.74109">
        <ele>288.05</ele>
        <time>2021-02-21T07:07:43Z</time>
      </trkpt>
      <trkpt lat="49.08055" lon="6.74153">
        <ele>286.61</ele>
        <time>2021-02-21T07:08:07Z</time>
      </trkpt>
      <trkpt lat="49.08069" lon="6.74192">
        <ele>284.69</ele>
        <time>2021-02-21T07:08:29Z</time>
      </trkpt>
      <trkpt lat="49.0808" lon="6.74221">
        <ele>283.73</ele>
        <time>2021-02-21T07:08:45Z</time>
      </trkpt>
      <trkpt lat="49.08098" lon="6.74259">
        <ele>282.77</ele>
        <time>2021-02-21T07:09:08Z</time>
      </trkpt>
      <trkpt lat="49.08107" lon="6.74289">
        <ele>281.32</ele>
        <time>2021-02-21T07:09:25Z</time>
      </trkpt>
      <trkpt lat="49.08122" lon="6.74322">
        <ele>280.36</ele>
        <time>2021-02-21T07:09:45Z</time>
      </trkpt>
      <trkpt lat="49.08139" lon="6.74358">
        <ele>277.48</ele>
        <time>2021-02-21T07:10:08Z</time>
      </trkpt>
      <trkpt lat="49.08148" lon="6.74393">
        <ele>275.07</ele>
        <time>2021-02-21T07:10:26Z</time>
      </trkpt>
      <trkpt lat="49.08161" lon="6.74427">
        <ele>274.59</ele>
        <time>2021-02-21T07:10:46Z</time>
      </trkpt>
      <trkpt lat="49.08174" lon="6.74462">
        <ele>275.07</ele>
        <time>2021-02-21T07:11:05Z</time>
      </trkpt>
      <trkpt lat="49.08191" lon="6.74497">
        <ele>277.48</ele>
        <time>2021-02-21T07:11:26Z</time>
      </trkpt>
      <trkpt lat="49.08206" lon="6.7452">
        <ele>279.88</ele>
        <time>2021-02-21T07:11:44Z</time>
      </trkpt>
      <trkpt lat="49.08221" lon="6.7453">
        <ele>282.28</ele>
        <time>2021-02-21T07:11:59Z</time>
      </trkpt>
      <trkpt lat="49.08239" lon="6.74525">
        <ele>283.25</ele>
        <time>2021-02-21T07:12:15Z</time>
      </trkpt>
      <trkpt lat="49.08267" lon="6.74542">
        <ele>284.69</ele>
        <time>2021-02-21T07:12:38Z</time>
      </trkpt>
      <trkpt lat="49.083" lon="6.74565">
        <ele>286.61</ele>
        <time>2021-02-21T07:13:04Z</time>
      </trkpt>
      <trkpt lat="49.08324" lon="6.74587">
        <ele>287.57</ele>
        <time>2021-02-21T07:13:26Z</time>
      </trkpt>
      <trkpt lat="49.08349" lon="6.74607">
        <ele>288.05</ele>
        <time>2021-02-21T07:13:47Z</time>
      </trkpt>
      <trkpt lat="49.08375" lon="6.7463">
        <ele>289.01</ele>
        <time>2021-02-21T07:14:11Z</time>
      </trkpt>
      <trkpt lat="49.08403" lon="6.74654">
        <ele>289.49</ele>
        <time>2021-02-21T07:14:35Z</time>
      </trkpt>
      <trkpt lat="49.0843" lon="6.74685">
        <ele>290.46</ele>
        <time>2021-02-21T07:15:00Z</time>
      </trkpt>
      <trkpt lat="49.08444" lon="6.74699">
        <ele>289.49</ele>
        <time>2021-02-21T07:15:21Z</time>
      </trkpt>
      <trkpt lat="49.08445" lon="6.74699">
        <ele>289.97</ele>
        <time>2021-02-21T07:15:31Z</time>
      </trkpt>
      <trkpt lat="49.08449" lon="6.74703">
        <ele>289.49</ele>
        <time>2021-02-21T07:15:35Z</time>
      </trkpt>
      <trkpt lat="49.08472" lon="6.74735">
        <ele>288.53</ele>
        <time>2021-02-21T07:15:59Z</time>
      </trkpt>
      <trkpt lat="49.08495" lon="6.74763">
        <ele>286.61</ele>
        <time>2021-02-21T07:16:21Z</time>
      </trkpt>
      <trkpt lat="49.08513" lon="6.74789">
        <ele>284.69</ele>
        <time>2021-02-21T07:16:40Z</time>
      </trkpt>
      <trkpt lat="49.08539" lon="6.74823">
        <ele>284.69</ele>
        <time>2021-02-21T07:17:05Z</time>
      </trkpt>
      <trkpt lat="49.08556" lon="6.74847">
        <ele>286.61</ele>
        <time>2021-02-21T07:17:22Z</time>
      </trkpt>
      <trkpt lat="49.08578" lon="6.74875">
        <ele>287.57</ele>
        <time>2021-02-21T07:17:45Z</time>
      </trkpt>
      <trkpt lat="49.08597" lon="6.74902">
        <ele>289.49</ele>
        <time>2021-02-21T07:18:05Z</time>
      </trkpt>
      <trkpt lat="49.08617" lon="6.74924">
        <ele>290.94</ele>
        <time>2021-02-21T07:18:25Z</time>
      </trkpt>
      <trkpt lat="49.08626" lon="6.74938">
        <ele>291.42</ele>
        <time>2021-02-21T07:18:43Z</time>
      </trkpt>
      <trkpt lat="49.08631" lon="6.74951">
        <ele>292.38</ele>
        <time>2021-02-21T07:18:56Z</time>
      </trkpt>
      <trkpt lat="49.08654" lon="6.74981">
        <ele>293.82</ele>
        <time>2021-02-21T07:19:20Z</time>
      </trkpt>
      <trkpt lat="49.08672" lon="6.75009">
        <ele>295.26</ele>
        <time>2021-02-21T07:19:40Z</time>
      </trkpt>
      <trkpt lat="49.08691" lon="6.75042">
        <ele>297.67</ele>
        <time>2021-02-21T07:20:01Z</time>
      </trkpt>
      <trkpt lat="49.0871" lon="6.7507">
        <ele>299.59</ele>
        <time>2021-02-21T07:20:22Z</time>
      </trkpt>
      <trkpt lat="49.0873" lon="6.75101">
        <ele>301.03</ele>
        <time>2021-02-21T07:20:45Z</time>
      </trkpt>
      <trkpt lat="49.08749" lon="6.75131">
        <ele>302.95</ele>
        <time>2021-02-21T07:21:07Z</time>
      </trkpt>
      <trkpt lat="49.08769" lon="6.75166">
        <ele>303.43</ele>
        <time>2021-02-21T07:21:29Z</time>
      </trkpt>
      <trkpt lat="49.08785" lon="6.75201">
        <ele>305.36</ele>
        <time>2021-02-21T07:21:52Z</time>
      </trkpt>
      <trkpt lat="49.08806" lon="6.75238">
        <ele>305.84</ele>
        <time>2021-02-21T07:22:15Z</time>
      </trkpt>
      <trkpt lat="49.08829" lon="6.75265">
        <ele>308.72</ele>
        <time>2021-02-21T07:22:38Z</time>
      </trkpt>
      <trkpt lat="49.08855" lon="6.75293">
        <ele>310.64</ele>
        <time>2021-02-21T07:23:01Z</time>
      </trkpt>
      <trkpt lat="49.08876" lon="6.75315">
        <ele>311.6</ele>
        <time>2021-02-21T07:23:20Z</time>
      </trkpt>
      <trkpt lat="49.08897" lon="6.75335">
        <ele>309.2</ele>
        <time>2021-02-21T07:23:41Z</time>
      </trkpt>
      <trkpt lat="49.08916" lon="6.75353">
        <ele>305.84</ele>
        <time>2021-02-21T07:23:58Z</time>
      </trkpt>
      <trkpt lat="49.08916" lon="6.75354">
        <ele>305.36</ele>
        <time>2021-02-21T07:23:59Z</time>
      </trkpt>
      <trkpt lat="49.0892" lon="6.75355">
        <ele>305.36</ele>
        <time>2021-02-21T07:24:16Z</time>
      </trkpt>
      <trkpt lat="49.08921" lon="6.75356">
        <ele>305.84</ele>
        <time>2021-02-21T07:24:22Z</time>
      </trkpt>
      <trkpt lat="49.0894" lon="6.75373">
        <ele>302.47</ele>
        <time>2021-02-21T07:24:40Z</time>
      </trkpt>
      <trkpt lat="49.08961" lon="6.75386">
        <ele>299.11</ele>
        <time>2021-02-21T07:24:59Z</time>
      </trkpt>
      <trkpt lat="49.08993" lon="6.75404">
        <ele>296.22</ele>
        <time>2021-02-21T07:25:23Z</time>
      </trkpt>
      <trkpt lat="49.09031" lon="6.75417">
        <ele>295.26</ele>
        <time>2021-02-21T07:25:51Z</time>
      </trkpt>
      <trkpt lat="49.0906" lon="6.75426">
        <ele>295.26</ele>
        <time>2021-02-21T07:26:13Z</time>
      </trkpt>
      <trkpt lat="49.09093" lon="6.75439">
        <ele>294.3</ele>
        <time>2021-02-21T07:26:39Z</time>
      </trkpt>
      <trkpt lat="49.09114" lon="6.75454">
        <ele>291.42</ele>
        <time>2021-02-21T07:26:58Z</time>
      </trkpt>
      <trkpt lat="49.09132" lon="6.75468">
        <ele>288.05</ele>
        <time>2021-02-21T07:27:15Z</time>
      </trkpt>
      <trkpt lat="49.09147" lon="6.75482">
        <ele>285.17</ele>
        <time>2021-02-21T07:27:30Z</time>
      </trkpt>
      <trkpt lat="49.09173" lon="6.75478">
        <ele>282.77</ele>
        <time>2021-02-21T07:27:52Z</time>
      </trkpt>
      <trkpt lat="49.09195" lon="6.75459">
        <ele>281.32</ele>
        <time>2021-02-21T07:28:12Z</time>
      </trkpt>
      <trkpt lat="49.09225" lon="6.75435">
        <ele>281.32</ele>
        <time>2021-02-21T07:28:36Z</time>
      </trkpt>
      <trkpt lat="49.09248" lon="6.75413">
        <ele>280.36</ele>
        <time>2021-02-21T07:28:56Z</time>
      </trkpt>
      <trkpt lat="49.09271" lon="6.75394">
        <ele>279.88</ele>
        <time>2021-02-21T07:29:16Z</time>
      </trkpt>
      <trkpt lat="49.09294" lon="6.75374">
        <ele>277.96</ele>
        <time>2021-02-21T07:29:38Z</time>
      </trkpt>
      <trkpt lat="49.09317" lon="6.7536">
        <ele>275.56</ele>
        <time>2021-02-21T07:29:59Z</time>
      </trkpt>
      <trkpt lat="49.09342" lon="6.75347">
        <ele>272.19</ele>
        <time>2021-02-21T07:30:20Z</time>
      </trkpt>
      <trkpt lat="49.09369" lon="6.75332">
        <ele>269.31</ele>
        <time>2021-02-21T07:30:43Z</time>
      </trkpt>
      <trkpt lat="49.09398" lon="6.75315">
        <ele>266.42</ele>
        <time>2021-02-21T07:31:05Z</time>
      </trkpt>
      <trkpt lat="49.0943" lon="6.75302">
        <ele>265.46</ele>
        <time>2021-02-21T07:31:30Z</time>
      </trkpt>
      <trkpt lat="49.0946" lon="6.75291">
        <ele>264.5</ele>
        <time>2021-02-21T07:31:52Z</time>
      </trkpt>
      <trkpt lat="49.0949" lon="6.75281">
        <ele>263.54</ele>
        <time>2021-02-21T07:32:15Z</time>
      </trkpt>
      <trkpt lat="49.09499" lon="6.75277">
        <ele>263.06</ele>
        <time>2021-02-21T07:32:23Z</time>
      </trkpt>
      <trkpt lat="49.09527" lon="6.75269">
        <ele>261.62</ele>
        <time>2021-02-21T07:32:43Z</time>
      </trkpt>
      <trkpt lat="49.09559" lon="6.75268">
        <ele>261.62</ele>
        <time>2021-02-21T07:33:07Z</time>
      </trkpt>
      <trkpt lat="49.0958" lon="6.75271">
        <ele>260.17</ele>
        <time>2021-02-21T07:33:22Z</time>
      </trkpt>
      <trkpt lat="49.09604" lon="6.75266">
        <ele>259.69</ele>
        <time>2021-02-21T07:33:40Z</time>
      </trkpt>
      <trkpt lat="49.09632" lon="6.75239">
        <ele>259.21</ele>
        <time>2021-02-21T07:34:02Z</time>
      </trkpt>
      <trkpt lat="49.09663" lon="6.75202">
        <ele>257.77</ele>
        <time>2021-02-21T07:34:30Z</time>
      </trkpt>
      <trkpt lat="49.09689" lon="6.75175">
        <ele>257.29</ele>
        <time>2021-02-21T07:34:53Z</time>
      </trkpt>
      <trkpt lat="49.09715" lon="6.75149">
        <ele>255.37</ele>
        <time>2021-02-21T07:35:16Z</time>
      </trkpt>
      <trkpt lat="49.09742" lon="6.75126">
        <ele>253.44</ele>
        <time>2021-02-21T07:35:37Z</time>
      </trkpt>
      <trkpt lat="49.09767" lon="6.75109">
        <ele>252</ele>
        <time>2021-02-21T07:35:58Z</time>
      </trkpt>
      <trkpt lat="49.09792" lon="6.75088">
        <ele>250.08</ele>
        <time>2021-02-21T07:36:17Z</time>
      </trkpt>
      <trkpt lat="49.09818" lon="6.75071">
        <ele>249.12</ele>
        <time>2021-02-21T07:36:37Z</time>
      </trkpt>
      <trkpt lat="49.0984" lon="6.75055">
        <ele>247.68</ele>
        <time>2021-02-21T07:36:54Z</time>
      </trkpt>
      <trkpt lat="49.09866" lon="6.75037">
        <ele>246.23</ele>
        <time>2021-02-21T07:37:15Z</time>
      </trkpt>
      <trkpt lat="49.09882" lon="6.75012">
        <ele>245.27</ele>
        <time>2021-02-21T07:37:32Z</time>
      </trkpt>
      <trkpt lat="49.09897" lon="6.74962">
        <ele>243.83</ele>
        <time>2021-02-21T07:37:57Z</time>
      </trkpt>
      <trkpt lat="49.09903" lon="6.74926">
        <ele>243.83</ele>
        <time>2021-02-21T07:38:15Z</time>
      </trkpt>
      <trkpt lat="49.09907" lon="6.74882">
        <ele>243.83</ele>
        <time>2021-02-21T07:38:36Z</time>
      </trkpt>
      <trkpt lat="49.09918" lon="6.74838">
        <ele>244.31</ele>
        <time>2021-02-21T07:38:58Z</time>
      </trkpt>
      <trkpt lat="49.09938" lon="6.74804">
        <ele>244.31</ele>
        <time>2021-02-21T07:39:20Z</time>
      </trkpt>
      <trkpt lat="49.09967" lon="6.74781">
        <ele>243.83</ele>
        <time>2021-02-21T07:39:43Z</time>
      </trkpt>
      <trkpt lat="49.09997" lon="6.74761">
        <ele>242.87</ele>
        <time>2021-02-21T07:40:06Z</time>
      </trkpt>
      <trkpt lat="49.09998" lon="6.7476">
        <ele>242.87</ele>
        <time>2021-02-21T07:40:07Z</time>
      </trkpt>
      <trkpt lat="49.09997" lon="6.7475">
        <ele>242.39</ele>
        <time>2021-02-21T07:40:12Z</time>
      </trkpt>
      <trkpt lat="49.09978" lon="6.74709">
        <ele>240.95</ele>
        <time>2021-02-21T07:40:34Z</time>
      </trkpt>
      <trkpt lat="49.09957" lon="6.74665">
        <ele>241.43</ele>
        <time>2021-02-21T07:40:57Z</time>
      </trkpt>
      <trkpt lat="49.09944" lon="6.74635">
        <ele>241.43</ele>
        <time>2021-02-21T07:41:15Z</time>
      </trkpt>
      <trkpt lat="49.09941" lon="6.74623">
        <ele>242.87</ele>
        <time>2021-02-21T07:41:23Z</time>
      </trkpt>
      <trkpt lat="49.09925" lon="6.74592">
        <ele>245.75</ele>
        <time>2021-02-21T07:41:41Z</time>
      </trkpt>
      <trkpt lat="49.09901" lon="6.74573">
        <ele>248.16</ele>
        <time>2021-02-21T07:42:02Z</time>
      </trkpt>
      <trkpt lat="49.09877" lon="6.74561">
        <ele>249.12</ele>
        <time>2021-02-21T07:42:22Z</time>
      </trkpt>
      <trkpt lat="49.09847" lon="6.74542">
        <ele>248.16</ele>
        <time>2021-02-21T07:42:44Z</time>
      </trkpt>
      <trkpt lat="49.09819" lon="6.74521">
        <ele>246.72</ele>
        <time>2021-02-21T07:43:07Z</time>
      </trkpt>
      <trkpt lat="49.09795" lon="6.74503">
        <ele>246.23</ele>
        <time>2021-02-21T07:43:26Z</time>
      </trkpt>
      <trkpt lat="49.09763" lon="6.7448">
        <ele>244.79</ele>
        <time>2021-02-21T07:43:51Z</time>
      </trkpt>
      <trkpt lat="49.09733" lon="6.74455">
        <ele>243.83</ele>
        <time>2021-02-21T07:44:15Z</time>
      </trkpt>
      <trkpt lat="49.09714" lon="6.74424">
        <ele>243.83</ele>
        <time>2021-02-21T07:44:34Z</time>
      </trkpt>
      <trkpt lat="49.09705" lon="6.74383">
        <ele>244.79</ele>
        <time>2021-02-21T07:44:55Z</time>
      </trkpt>
      <trkpt lat="49.09689" lon="6.74358">
        <ele>244.79</ele>
        <time>2021-02-21T07:45:12Z</time>
      </trkpt>
      <trkpt lat="49.09668" lon="6.74362">
        <ele>245.27</ele>
        <time>2021-02-21T07:45:28Z</time>
      </trkpt>
      <trkpt lat="49.09647" lon="6.74324">
        <ele>245.27</ele>
        <time>2021-02-21T07:45:52Z</time>
      </trkpt>
      <trkpt lat="49.0964" lon="6.74286">
        <ele>245.27</ele>
        <time>2021-02-21T07:46:11Z</time>
      </trkpt>
      <trkpt lat="49.09637" lon="6.74245">
        <ele>245.75</ele>
        <time>2021-02-21T07:46:30Z</time>
      </trkpt>
      <trkpt lat="49.09632" lon="6.74235">
        <ele>245.75</ele>
        <time>2021-02-21T07:46:36Z</time>
      </trkpt>
      <trkpt lat="49.09618" lon="6.74219">
        <ele>245.75</ele>
        <time>2021-02-21T07:46:49Z</time>
      </trkpt>
      <trkpt lat="49.09596" lon="6.74189">
        <ele>246.72</ele>
        <time>2021-02-21T07:47:10Z</time>
      </trkpt>
      <trkpt lat="49.09583" lon="6.74164">
        <ele>246.72</ele>
        <time>2021-02-21T07:47:25Z</time>
      </trkpt>
      <trkpt lat="49.09567" lon="6.74138">
        <ele>246.72</ele>
        <time>2021-02-21T07:47:41Z</time>
      </trkpt>
      <trkpt lat="49.09555" lon="6.74109">
        <ele>247.2</ele>
        <time>2021-02-21T07:47:58Z</time>
      </trkpt>
      <trkpt lat="49.09537" lon="6.74069">
        <ele>247.68</ele>
        <time>2021-02-21T07:48:18Z</time>
      </trkpt>
      <trkpt lat="49.09522" lon="6.74036">
        <ele>248.16</ele>
        <time>2021-02-21T07:48:37Z</time>
      </trkpt>
      <trkpt lat="49.09508" lon="6.74005">
        <ele>248.64</ele>
        <time>2021-02-21T07:48:54Z</time>
      </trkpt>
      <trkpt lat="49.09493" lon="6.73963">
        <ele>249.12</ele>
        <time>2021-02-21T07:49:15Z</time>
      </trkpt>
      <trkpt lat="49.09489" lon="6.7395">
        <ele>249.12</ele>
        <time>2021-02-21T07:49:22Z</time>
      </trkpt>
      <trkpt lat="49.09476" lon="6.73915">
        <ele>249.6</ele>
        <time>2021-02-21T07:49:40Z</time>
      </trkpt>
      <trkpt lat="49.09463" lon="6.73876">
        <ele>250.56</ele>
        <time>2021-02-21T07:50:00Z</time>
      </trkpt>
      <trkpt lat="49.09455" lon="6.73839">
        <ele>251.52</ele>
        <time>2021-02-21T07:50:18Z</time>
      </trkpt>
      <trkpt lat="49.09446" lon="6.73806">
        <ele>252</ele>
        <time>2021-02-21T07:50:34Z</time>
      </trkpt>
      <trkpt lat="49.09437" lon="6.73759">
        <ele>252.48</ele>
        <time>2021-02-21T07:50:56Z</time>
      </trkpt>
      <trkpt lat="49.09427" lon="6.73716">
        <ele>253.44</ele>
        <time>2021-02-21T07:51:16Z</time>
      </trkpt>
      <trkpt lat="49.0942" lon="6.73676">
        <ele>254.41</ele>
        <time>2021-02-21T07:51:36Z</time>
      </trkpt>
      <trkpt lat="49.09411" lon="6.73632">
        <ele>254.89</ele>
        <time>2021-02-21T07:51:59Z</time>
      </trkpt>
      <trkpt lat="49.09397" lon="6.73586">
        <ele>255.85</ele>
        <time>2021-02-21T07:52:22Z</time>
      </trkpt>
      <trkpt lat="49.0939" lon="6.73551">
        <ele>256.81</ele>
        <time>2021-02-21T07:52:40Z</time>
      </trkpt>
      <trkpt lat="49.09384" lon="6.73517">
        <ele>258.25</ele>
        <time>2021-02-21T07:52:57Z</time>
      </trkpt>
      <trkpt lat="49.09378" lon="6.73487">
        <ele>260.17</ele>
        <time>2021-02-21T07:53:14Z</time>
      </trkpt>
      <trkpt lat="49.0937" lon="6.73447">
        <ele>259.69</ele>
        <time>2021-02-21T07:53:33Z</time>
      </trkpt>
      <trkpt lat="49.09362" lon="6.73409">
        <ele>260.17</ele>
        <time>2021-02-21T07:53:51Z</time>
      </trkpt>
      <trkpt lat="49.09354" lon="6.73364">
        <ele>260.17</ele>
        <time>2021-02-21T07:54:12Z</time>
      </trkpt>
      <trkpt lat="49.09347" lon="6.73329">
        <ele>260.17</ele>
        <time>2021-02-21T07:54:30Z</time>
      </trkpt>
      <trkpt lat="49.09343" lon="6.73309">
        <ele>260.17</ele>
        <time>2021-02-21T07:54:45Z</time>
      </trkpt>
      <trkpt lat="49.09343" lon="6.73305">
        <ele>260.17</ele>
        <time>2021-02-21T07:54:48Z</time>
      </trkpt>
      <trkpt lat="49.09342" lon="6.73296">
        <ele>260.17</ele>
        <time>2021-02-21T07:54:53Z</time>
      </trkpt>
      <trkpt lat="49.09344" lon="6.73288">
        <ele>259.69</ele>
        <time>2021-02-21T07:55:08Z</time>
      </trkpt>
      <trkpt lat="49.09343" lon="6.73288">
        <ele>259.69</ele>
        <time>2021-02-21T07:55:09Z</time>
      </trkpt>
      <trkpt lat="49.09334" lon="6.73256">
        <ele>259.69</ele>
        <time>2021-02-21T07:55:26Z</time>
      </trkpt>
      <trkpt lat="49.09324" lon="6.7322">
        <ele>259.69</ele>
        <time>2021-02-21T07:55:44Z</time>
      </trkpt>
      <trkpt lat="49.09311" lon="6.73176">
        <ele>260.65</ele>
        <time>2021-02-21T07:56:06Z</time>
      </trkpt>
      <trkpt lat="49.09301" lon="6.73144">
        <ele>261.14</ele>
        <time>2021-02-21T07:56:23Z</time>
      </trkpt>
      <trkpt lat="49.09286" lon="6.73104">
        <ele>262.58</ele>
        <time>2021-02-21T07:56:43Z</time>
      </trkpt>
      <trkpt lat="49.0927" lon="6.73065">
        <ele>264.5</ele>
        <time>2021-02-21T07:57:04Z</time>
      </trkpt>
      <trkpt lat="49.09253" lon="6.7302">
        <ele>265.46</ele>
        <time>2021-02-21T07:57:29Z</time>
      </trkpt>
      <trkpt lat="49.09238" lon="6.72982">
        <ele>265.94</ele>
        <time>2021-02-21T07:57:50Z</time>
      </trkpt>
      <trkpt lat="49.09218" lon="6.72941">
        <ele>266.42</ele>
        <time>2021-02-21T07:58:14Z</time>
      </trkpt>
      <trkpt lat="49.09203" lon="6.72914">
        <ele>267.86</ele>
        <time>2021-02-21T07:58:32Z</time>
      </trkpt>
      <trkpt lat="49.09182" lon="6.72878">
        <ele>269.79</ele>
        <time>2021-02-21T07:58:56Z</time>
      </trkpt>
      <trkpt lat="49.09162" lon="6.72845">
        <ele>271.23</ele>
        <time>2021-02-21T07:59:17Z</time>
      </trkpt>
      <trkpt lat="49.09144" lon="6.72818">
        <ele>273.15</ele>
        <time>2021-02-21T07:59:37Z</time>
      </trkpt>
      <trkpt lat="49.09126" lon="6.72796">
        <ele>273.15</ele>
        <time>2021-02-21T07:59:55Z</time>
      </trkpt>
      <trkpt lat="49.09127" lon="6.72797">
        <ele>274.11</ele>
        <time>2021-02-21T08:00:01Z</time>
      </trkpt>
      <trkpt lat="49.09121" lon="6.7279">
        <ele>273.63</ele>
        <time>2021-02-21T08:00:07Z</time>
      </trkpt>
      <trkpt lat="49.09108" lon="6.72767">
        <ele>274.59</ele>
        <time>2021-02-21T08:00:25Z</time>
      </trkpt>
      <trkpt lat="49.09092" lon="6.72745">
        <ele>275.07</ele>
        <time>2021-02-21T08:00:47Z</time>
      </trkpt>
      <trkpt lat="49.09078" lon="6.72726">
        <ele>275.07</ele>
        <time>2021-02-21T08:01:06Z</time>
      </trkpt>
      <trkpt lat="49.09071" lon="6.72716">
        <ele>274.59</ele>
        <time>2021-02-21T08:01:26Z</time>
      </trkpt>
      <trkpt lat="49.0905" lon="6.72689">
        <ele>274.59</ele>
        <time>2021-02-21T08:01:46Z</time>
      </trkpt>
      <trkpt lat="49.09025" lon="6.72655">
        <ele>273.63</ele>
        <time>2021-02-21T08:02:09Z</time>
      </trkpt>
      <trkpt lat="49.09004" lon="6.72634">
        <ele>273.63</ele>
        <time>2021-02-21T08:02:27Z</time>
      </trkpt>
      <trkpt lat="49.08978" lon="6.72597">
        <ele>273.15</ele>
        <time>2021-02-21T08:02:53Z</time>
      </trkpt>
      <trkpt lat="49.08956" lon="6.72565">
        <ele>271.23</ele>
        <time>2021-02-21T08:03:14Z</time>
      </trkpt>
      <trkpt lat="49.08934" lon="6.72539">
        <ele>270.27</ele>
        <time>2021-02-21T08:03:33Z</time>
      </trkpt>
      <trkpt lat="49.08908" lon="6.72508">
        <ele>269.31</ele>
        <time>2021-02-21T08:03:55Z</time>
      </trkpt>
      <trkpt lat="49.08881" lon="6.72475">
        <ele>268.83</ele>
        <time>2021-02-21T08:04:19Z</time>
      </trkpt>
      <trkpt lat="49.08854" lon="6.72442">
        <ele>267.86</ele>
        <time>2021-02-21T08:04:42Z</time>
      </trkpt>
      <trkpt lat="49.08835" lon="6.72419">
        <ele>267.86</ele>
        <time>2021-02-21T08:04:59Z</time>
      </trkpt>
      <trkpt lat="49.08807" lon="6.72388">
        <ele>266.9</ele>
        <time>2021-02-21T08:05:23Z</time>
      </trkpt>
      <trkpt lat="49.08787" lon="6.72361">
        <ele>265.94</ele>
        <time>2021-02-21T08:05:41Z</time>
      </trkpt>
      <trkpt lat="49.08763" lon="6.72332">
        <ele>265.94</ele>
        <time>2021-02-21T08:06:01Z</time>
      </trkpt>
      <trkpt lat="49.08741" lon="6.72308">
        <ele>265.46</ele>
        <time>2021-02-21T08:06:20Z</time>
      </trkpt>
      <trkpt lat="49.08718" lon="6.72288">
        <ele>265.46</ele>
        <time>2021-02-21T08:06:37Z</time>
      </trkpt>
      <trkpt lat="49.08692" lon="6.72266">
        <ele>265.94</ele>
        <time>2021-02-21T08:06:57Z</time>
      </trkpt>
      <trkpt lat="49.08666" lon="6.72241">
        <ele>267.86</ele>
        <time>2021-02-21T08:07:19Z</time>
      </trkpt>
      <trkpt lat="49.08662" lon="6.72236">
        <ele>267.86</ele>
        <time>2021-02-21T08:07:25Z</time>
      </trkpt>
      <trkpt lat="49.08661" lon="6.72224">
        <ele>268.35</ele>
        <time>2021-02-21T08:07:40Z</time>
      </trkpt>
      <trkpt lat="49.08666" lon="6.72213">
        <ele>268.35</ele>
        <time>2021-02-21T08:07:54Z</time>
      </trkpt>
      <trkpt lat="49.08666" lon="6.72213">
        <ele>268.35</ele>
        <time>2021-02-21T08:07:57Z</time>
      </trkpt>
      <trkpt lat="49.08669" lon="6.72208">
        <ele>268.35</ele>
        <time>2021-02-21T08:08:01Z</time>
      </trkpt>
      <trkpt lat="49.08689" lon="6.72175">
        <ele>267.38</ele>
        <time>2021-02-21T08:08:20Z</time>
      </trkpt>
      <trkpt lat="49.08688" lon="6.72163">
        <ele>266.42</ele>
        <time>2021-02-21T08:08:25Z</time>
      </trkpt>
      <trkpt lat="49.08702" lon="6.72134">
        <ele>267.38</ele>
        <time>2021-02-21T08:08:42Z</time>
      </trkpt>
      <trkpt lat="49.08724" lon="6.72098">
        <ele>267.38</ele>
        <time>2021-02-21T08:09:04Z</time>
      </trkpt>
      <trkpt lat="49.0874" lon="6.72061">
        <ele>268.83</ele>
        <time>2021-02-21T08:09:25Z</time>
      </trkpt>
      <trkpt lat="49.08759" lon="6.72018">
        <ele>270.27</ele>
        <time>2021-02-21T08:09:49Z</time>
      </trkpt>
      <trkpt lat="49.08767" lon="6.72004">
        <ele>270.27</ele>
        <time>2021-02-21T08:10:02Z</time>
      </trkpt>
      <trkpt lat="49.08772" lon="6.71997">
        <ele>270.75</ele>
        <time>2021-02-21T08:10:07Z</time>
      </trkpt>
      <trkpt lat="49.0879" lon="6.71957">
        <ele>272.19</ele>
        <time>2021-02-21T08:10:29Z</time>
      </trkpt>
      <trkpt lat="49.08806" lon="6.71928">
        <ele>274.59</ele>
        <time>2021-02-21T08:10:47Z</time>
      </trkpt>
      <trkpt lat="49.08826" lon="6.71891">
        <ele>275.07</ele>
        <time>2021-02-21T08:11:09Z</time>
      </trkpt>
      <trkpt lat="49.08847" lon="6.71844">
        <ele>276.52</ele>
        <time>2021-02-21T08:11:34Z</time>
      </trkpt>
      <trkpt lat="49.08864" lon="6.71812">
        <ele>278.92</ele>
        <time>2021-02-21T08:11:53Z</time>
      </trkpt>
      <trkpt lat="49.08884" lon="6.71782">
        <ele>279.4</ele>
        <time>2021-02-21T08:12:13Z</time>
      </trkpt>
      <trkpt lat="49.0891" lon="6.71764">
        <ele>280.84</ele>
        <time>2021-02-21T08:12:33Z</time>
      </trkpt>
      <trkpt lat="49.08938" lon="6.71757">
        <ele>282.28</ele>
        <time>2021-02-21T08:12:53Z</time>
      </trkpt>
      <trkpt lat="49.08963" lon="6.71759">
        <ele>282.77</ele>
        <time>2021-02-21T08:13:11Z</time>
      </trkpt>
      <trkpt lat="49.08991" lon="6.71769">
        <ele>283.73</ele>
        <time>2021-02-21T08:13:30Z</time>
      </trkpt>
      <trkpt lat="49.09015" lon="6.71781">
        <ele>284.21</ele>
        <time>2021-02-21T08:13:47Z</time>
      </trkpt>
      <trkpt lat="49.09041" lon="6.71794">
        <ele>285.65</ele>
        <time>2021-02-21T08:14:07Z</time>
      </trkpt>
      <trkpt lat="49.09068" lon="6.71798">
        <ele>288.05</ele>
        <time>2021-02-21T08:14:29Z</time>
      </trkpt>
      <trkpt lat="49.09094" lon="6.71808">
        <ele>289.97</ele>
        <time>2021-02-21T08:14:49Z</time>
      </trkpt>
      <trkpt lat="49.09112" lon="6.71804">
        <ele>290.46</ele>
        <time>2021-02-21T08:15:06Z</time>
      </trkpt>
      <trkpt lat="49.09124" lon="6.71797">
        <ele>291.42</ele>
        <time>2021-02-21T08:15:22Z</time>
      </trkpt>
      <trkpt lat="49.09127" lon="6.71797">
        <ele>291.42</ele>
        <time>2021-02-21T08:15:49Z</time>
      </trkpt>
      <trkpt lat="49.0913" lon="6.71797">
        <ele>291.42</ele>
        <time>2021-02-21T08:16:14Z</time>
      </trkpt>
      <trkpt lat="49.09134" lon="6.71796">
        <ele>291.42</ele>
        <time>2021-02-21T08:16:42Z</time>
      </trkpt>
      <trkpt lat="49.09136" lon="6.71794">
        <ele>291.9</ele>
        <time>2021-02-21T08:16:51Z</time>
      </trkpt>
      <trkpt lat="49.09155" lon="6.71779">
        <ele>290.94</ele>
        <time>2021-02-21T08:17:08Z</time>
      </trkpt>
      <trkpt lat="49.09167" lon="6.71772">
        <ele>289.97</ele>
        <time>2021-02-21T08:17:18Z</time>
      </trkpt>
      <trkpt lat="49.09162" lon="6.71735">
        <ele>288.53</ele>
        <time>2021-02-21T08:17:36Z</time>
      </trkpt>
      <trkpt lat="49.09161" lon="6.71729">
        <ele>288.05</ele>
        <time>2021-02-21T08:17:39Z</time>
      </trkpt>
      <trkpt lat="49.0916" lon="6.71719">
        <ele>288.53</ele>
        <time>2021-02-21T08:17:44Z</time>
      </trkpt>
      <trkpt lat="49.09158" lon="6.71681">
        <ele>286.61</ele>
        <time>2021-02-21T08:18:02Z</time>
      </trkpt>
      <trkpt lat="49.09152" lon="6.71637">
        <ele>285.17</ele>
        <time>2021-02-21T08:18:22Z</time>
      </trkpt>
      <trkpt lat="49.09149" lon="6.71598">
        <ele>283.73</ele>
        <time>2021-02-21T08:18:40Z</time>
      </trkpt>
      <trkpt lat="49.09149" lon="6.71591">
        <ele>284.21</ele>
        <time>2021-02-21T08:18:43Z</time>
      </trkpt>
      <trkpt lat="49.09145" lon="6.71561">
        <ele>283.73</ele>
        <time>2021-02-21T08:18:58Z</time>
      </trkpt>
      <trkpt lat="49.0914" lon="6.71515">
        <ele>282.77</ele>
        <time>2021-02-21T08:19:19Z</time>
      </trkpt>
      <trkpt lat="49.09136" lon="6.71476">
        <ele>283.25</ele>
        <time>2021-02-21T08:19:37Z</time>
      </trkpt>
      <trkpt lat="49.09137" lon="6.71444">
        <ele>284.21</ele>
        <time>2021-02-21T08:19:52Z</time>
      </trkpt>
      <trkpt lat="49.09134" lon="6.71409">
        <ele>284.21</ele>
        <time>2021-02-21T08:20:09Z</time>
      </trkpt>
      <trkpt lat="49.09144" lon="6.71372">
        <ele>286.13</ele>
        <time>2021-02-21T08:20:29Z</time>
      </trkpt>
      <trkpt lat="49.09158" lon="6.71339">
        <ele>287.57</ele>
        <time>2021-02-21T08:20:47Z</time>
      </trkpt>
      <trkpt lat="49.09165" lon="6.71315">
        <ele>289.01</ele>
        <time>2021-02-21T08:20:59Z</time>
      </trkpt>
      <trkpt lat="49.09154" lon="6.71281">
        <ele>289.97</ele>
        <time>2021-02-21T08:21:17Z</time>
      </trkpt>
      <trkpt lat="49.09144" lon="6.71249">
        <ele>291.42</ele>
        <time>2021-02-21T08:21:34Z</time>
      </trkpt>
      <trkpt lat="49.09141" lon="6.71207">
        <ele>293.34</ele>
        <time>2021-02-21T08:21:54Z</time>
      </trkpt>
      <trkpt lat="49.09152" lon="6.71167">
        <ele>294.78</ele>
        <time>2021-02-21T08:22:14Z</time>
      </trkpt>
      <trkpt lat="49.09163" lon="6.71133">
        <ele>295.74</ele>
        <time>2021-02-21T08:22:31Z</time>
      </trkpt>
      <trkpt lat="49.0918" lon="6.71097">
        <ele>298.63</ele>
        <time>2021-02-21T08:22:54Z</time>
      </trkpt>
      <trkpt lat="49.0919" lon="6.71086">
        <ele>299.59</ele>
        <time>2021-02-21T08:23:07Z</time>
      </trkpt>
      <trkpt lat="49.0919" lon="6.71086">
        <ele>299.11</ele>
        <time>2021-02-21T08:23:10Z</time>
      </trkpt>
      <trkpt lat="49.0918" lon="6.71061">
        <ele>299.59</ele>
        <time>2021-02-21T08:23:25Z</time>
      </trkpt>
      <trkpt lat="49.09164" lon="6.71023">
        <ele>299.59</ele>
        <time>2021-02-21T08:23:46Z</time>
      </trkpt>
      <trkpt lat="49.09151" lon="6.70998">
        <ele>299.59</ele>
        <time>2021-02-21T08:24:01Z</time>
      </trkpt>
      <trkpt lat="49.09134" lon="6.70962">
        <ele>300.07</ele>
        <time>2021-02-21T08:24:22Z</time>
      </trkpt>
      <trkpt lat="49.09122" lon="6.7093">
        <ele>300.07</ele>
        <time>2021-02-21T08:24:41Z</time>
      </trkpt>
      <trkpt lat="49.09106" lon="6.70894">
        <ele>299.59</ele>
        <time>2021-02-21T08:25:01Z</time>
      </trkpt>
      <trkpt lat="49.09091" lon="6.70861">
        <ele>300.07</ele>
        <time>2021-02-21T08:25:20Z</time>
      </trkpt>
      <trkpt lat="49.09075" lon="6.7083">
        <ele>299.11</ele>
        <time>2021-02-21T08:25:37Z</time>
      </trkpt>
      <trkpt lat="49.09059" lon="6.70798">
        <ele>298.63</ele>
        <time>2021-02-21T08:25:55Z</time>
      </trkpt>
      <trkpt lat="49.09044" lon="6.70762">
        <ele>298.15</ele>
        <time>2021-02-21T08:26:15Z</time>
      </trkpt>
      <trkpt lat="49.09026" lon="6.70729">
        <ele>297.67</ele>
        <time>2021-02-21T08:26:34Z</time>
      </trkpt>
      <trkpt lat="49.09009" lon="6.70693">
        <ele>297.18</ele>
        <time>2021-02-21T08:26:54Z</time>
      </trkpt>
      <trkpt lat="49.08998" lon="6.70666">
        <ele>296.7</ele>
        <time>2021-02-21T08:27:10Z</time>
      </trkpt>
      <trkpt lat="49.08984" lon="6.70634">
        <ele>294.78</ele>
        <time>2021-02-21T08:27:28Z</time>
      </trkpt>
      <trkpt lat="49.08966" lon="6.70603">
        <ele>294.78</ele>
        <time>2021-02-21T08:27:45Z</time>
      </trkpt>
      <trkpt lat="49.0895" lon="6.70568">
        <ele>292.86</ele>
        <time>2021-02-21T08:28:04Z</time>
      </trkpt>
      <trkpt lat="49.08934" lon="6.70538">
        <ele>291.9</ele>
        <time>2021-02-21T08:28:21Z</time>
      </trkpt>
      <trkpt lat="49.08918" lon="6.705">
        <ele>290.94</ele>
        <time>2021-02-21T08:28:40Z</time>
      </trkpt>
      <trkpt lat="49.08903" lon="6.70468">
        <ele>289.01</ele>
        <time>2021-02-21T08:28:58Z</time>
      </trkpt>
      <trkpt lat="49.08884" lon="6.70431">
        <ele>288.05</ele>
        <time>2021-02-21T08:29:19Z</time>
      </trkpt>
      <trkpt lat="49.08869" lon="6.70397">
        <ele>287.09</ele>
        <time>2021-02-21T08:29:38Z</time>
      </trkpt>
      <trkpt lat="49.08847" lon="6.70361">
        <ele>285.17</ele>
        <time>2021-02-21T08:29:59Z</time>
      </trkpt>
      <trkpt lat="49.08831" lon="6.70333">
        <ele>284.21</ele>
        <time>2021-02-21T08:30:16Z</time>
      </trkpt>
      <trkpt lat="49.08814" lon="6.70309">
        <ele>282.77</ele>
        <time>2021-02-21T08:30:32Z</time>
      </trkpt>
      <trkpt lat="49.08794" lon="6.70282">
        <ele>283.25</ele>
        <time>2021-02-21T08:30:49Z</time>
      </trkpt>
      <trkpt lat="49.08775" lon="6.70255">
        <ele>282.77</ele>
        <time>2021-02-21T08:31:07Z</time>
      </trkpt>
      <trkpt lat="49.08762" lon="6.70233">
        <ele>282.28</ele>
        <time>2021-02-21T08:31:20Z</time>
      </trkpt>
      <trkpt lat="49.0876" lon="6.70228">
        <ele>282.28</ele>
        <time>2021-02-21T08:31:23Z</time>
      </trkpt>
      <trkpt lat="49.08757" lon="6.70219">
        <ele>282.77</ele>
        <time>2021-02-21T08:31:28Z</time>
      </trkpt>
      <trkpt lat="49.0874" lon="6.7019">
        <ele>281.8</ele>
        <time>2021-02-21T08:31:45Z</time>
      </trkpt>
      <trkpt lat="49.08729" lon="6.70158">
        <ele>281.8</ele>
        <time>2021-02-21T08:32:01Z</time>
      </trkpt>
      <trkpt lat="49.08729" lon="6.70151">
        <ele>281.32</ele>
        <time>2021-02-21T08:32:04Z</time>
      </trkpt>
      <trkpt lat="49.08728" lon="6.7013">
        <ele>281.8</ele>
        <time>2021-02-21T08:32:16Z</time>
      </trkpt>
      <trkpt lat="49.08711" lon="6.70115">
        <ele>281.8</ele>
        <time>2021-02-21T08:32:30Z</time>
      </trkpt>
      <trkpt lat="49.08698" lon="6.70105">
        <ele>280.36</ele>
        <time>2021-02-21T08:32:41Z</time>
      </trkpt>
      <trkpt lat="49.08695" lon="6.70099">
        <ele>280.36</ele>
        <time>2021-02-21T08:32:50Z</time>
      </trkpt>
      <trkpt lat="49.08681" lon="6.70084">
        <ele>280.84</ele>
        <time>2021-02-21T08:33:04Z</time>
      </trkpt>
      <trkpt lat="49.08663" lon="6.70069">
        <ele>279.4</ele>
        <time>2021-02-21T08:33:19Z</time>
      </trkpt>
      <trkpt lat="49.08644" lon="6.70047">
        <ele>279.4</ele>
        <time>2021-02-21T08:33:36Z</time>
      </trkpt>
      <trkpt lat="49.08622" lon="6.70025">
        <ele>278.92</ele>
        <time>2021-02-21T08:33:55Z</time>
      </trkpt>
      <trkpt lat="49.08601" lon="6.70004">
        <ele>278.92</ele>
        <time>2021-02-21T08:34:12Z</time>
      </trkpt>
      <trkpt lat="49.08594" lon="6.69998">
        <ele>278.92</ele>
        <time>2021-02-21T08:34:18Z</time>
      </trkpt>
      <trkpt lat="49.08584" lon="6.69988">
        <ele>278.92</ele>
        <time>2021-02-21T08:34:27Z</time>
      </trkpt>
      <trkpt lat="49.08571" lon="6.69972">
        <ele>278.92</ele>
        <time>2021-02-21T08:34:40Z</time>
      </trkpt>
      <trkpt lat="49.08566" lon="6.69968">
        <ele>278.44</ele>
        <time>2021-02-21T08:34:44Z</time>
      </trkpt>
      <trkpt lat="49.08549" lon="6.69942">
        <ele>278.44</ele>
        <time>2021-02-21T08:35:00Z</time>
      </trkpt>
      <trkpt lat="49.08534" lon="6.69922">
        <ele>277.48</ele>
        <time>2021-02-21T08:35:15Z</time>
      </trkpt>
      <trkpt lat="49.08533" lon="6.6992">
        <ele>277.48</ele>
        <time>2021-02-21T08:35:16Z</time>
      </trkpt>
      <trkpt lat="49.0852" lon="6.69891">
        <ele>276.52</ele>
        <time>2021-02-21T08:35:34Z</time>
      </trkpt>
      <trkpt lat="49.08518" lon="6.69885">
        <ele>276.52</ele>
        <time>2021-02-21T08:35:37Z</time>
      </trkpt>
      <trkpt lat="49.08534" lon="6.69854">
        <ele>277.96</ele>
        <time>2021-02-21T08:35:55Z</time>
      </trkpt>
      <trkpt lat="49.08548" lon="6.69827">
        <ele>279.4</ele>
        <time>2021-02-21T08:36:12Z</time>
      </trkpt>
      <trkpt lat="49.08551" lon="6.6982">
        <ele>279.4</ele>
        <time>2021-02-21T08:36:17Z</time>
      </trkpt>
      <trkpt lat="49.08564" lon="6.69792">
        <ele>280.36</ele>
        <time>2021-02-21T08:36:33Z</time>
      </trkpt>
      <trkpt lat="49.08578" lon="6.69757">
        <ele>281.8</ele>
        <time>2021-02-21T08:36:52Z</time>
      </trkpt>
      <trkpt lat="49.08587" lon="6.69727">
        <ele>283.73</ele>
        <time>2021-02-21T08:37:09Z</time>
      </trkpt>
      <trkpt lat="49.08596" lon="6.69693">
        <ele>284.21</ele>
        <time>2021-02-21T08:37:27Z</time>
      </trkpt>
      <trkpt lat="49.08604" lon="6.69657">
        <ele>285.17</ele>
        <time>2021-02-21T08:37:47Z</time>
      </trkpt>
      <trkpt lat="49.08604" lon="6.69645">
        <ele>286.13</ele>
        <time>2021-02-21T08:38:01Z</time>
      </trkpt>
      <trkpt lat="49.08606" lon="6.69645">
        <ele>285.17</ele>
        <time>2021-02-21T08:38:18Z</time>
      </trkpt>
      <trkpt lat="49.08608" lon="6.69648">
        <ele>285.65</ele>
        <time>2021-02-21T08:38:41Z</time>
      </trkpt>
      <trkpt lat="49.0861" lon="6.6964">
        <ele>286.13</ele>
        <time>2021-02-21T08:38:56Z</time>
      </trkpt>
      <trkpt lat="49.08616" lon="6.69614">
        <ele>286.61</ele>
        <time>2021-02-21T08:39:11Z</time>
      </trkpt>
      <trkpt lat="49.08626" lon="6.69581">
        <ele>288.05</ele>
        <time>2021-02-21T08:39:31Z</time>
      </trkpt>
      <trkpt lat="49.08626" lon="6.69578">
        <ele>288.05</ele>
        <time>2021-02-21T08:39:35Z</time>
      </trkpt>
      <trkpt lat="49.08637" lon="6.69545">
        <ele>288.53</ele>
        <time>2021-02-21T08:39:54Z</time>
      </trkpt>
      <trkpt lat="49.08654" lon="6.69502">
        <ele>289.49</ele>
        <time>2021-02-21T08:40:15Z</time>
      </trkpt>
      <trkpt lat="49.08667" lon="6.69473">
        <ele>290.94</ele>
        <time>2021-02-21T08:40:32Z</time>
      </trkpt>
      <trkpt lat="49.08683" lon="6.69431">
        <ele>291.9</ele>
        <time>2021-02-21T08:40:53Z</time>
      </trkpt>
      <trkpt lat="49.08696" lon="6.69402">
        <ele>292.38</ele>
        <time>2021-02-21T08:41:09Z</time>
      </trkpt>
      <trkpt lat="49.08704" lon="6.69389">
        <ele>292.38</ele>
        <time>2021-02-21T08:41:17Z</time>
      </trkpt>
      <trkpt lat="49.08713" lon="6.69388">
        <ele>291.9</ele>
        <time>2021-02-21T08:41:36Z</time>
      </trkpt>
      <trkpt lat="49.08714" lon="6.69388">
        <ele>292.38</ele>
        <time>2021-02-21T08:41:56Z</time>
      </trkpt>
      <trkpt lat="49.08716" lon="6.69387">
        <ele>292.38</ele>
        <time>2021-02-21T08:42:10Z</time>
      </trkpt>
      <trkpt lat="49.08715" lon="6.69388">
        <ele>292.38</ele>
        <time>2021-02-21T08:42:32Z</time>
      </trkpt>
      <trkpt lat="49.08713" lon="6.69393">
        <ele>291.9</ele>
        <time>2021-02-21T08:42:56Z</time>
      </trkpt>
      <trkpt lat="49.08713" lon="6.6939">
        <ele>291.9</ele>
        <time>2021-02-21T08:43:27Z</time>
      </trkpt>
      <trkpt lat="49.08715" lon="6.69387">
        <ele>291.42</ele>
        <time>2021-02-21T08:43:41Z</time>
      </trkpt>
      <trkpt lat="49.08716" lon="6.6938">
        <ele>291.9</ele>
        <time>2021-02-21T08:43:49Z</time>
      </trkpt>
      <trkpt lat="49.08711" lon="6.69358">
        <ele>291.42</ele>
        <time>2021-02-21T08:44:05Z</time>
      </trkpt>
      <trkpt lat="49.08709" lon="6.69357">
        <ele>291.9</ele>
        <time>2021-02-21T08:44:23Z</time>
      </trkpt>
      <trkpt lat="49.08707" lon="6.69369">
        <ele>292.38</ele>
        <time>2021-02-21T08:44:45Z</time>
      </trkpt>
      <trkpt lat="49.08706" lon="6.69378">
        <ele>291.9</ele>
        <time>2021-02-21T08:45:06Z</time>
      </trkpt>
    </trkseg>
  </trk>
</gpx>